createdAt,value
2023-03-25T00:05:46.879Z,1.88
2023-03-25T00:10:56.210Z,1.90
2023-03-25T00:15:58.268Z,2.20
2023-03-25T00:21:04.576Z,2.23
2023-03-25T00:26:06.516Z,2.10
2023-03-25T00:31:12.771Z,2.17
2023-03-25T00:36:14.638Z,2.03
2023-03-25T00:41:28.072Z,1.92
2023-03-25T00:46:31.728Z,2.08
2023-03-25T00:51:33.716Z,2.63
2023-03-25T00:56:35.310Z,1.90
2023-03-25T01:01:39.532Z,2.55
2023-03-25T01:06:44.066Z,2.20
2023-03-25T01:11:46.745Z,1.90
2023-03-25T01:16:48.498Z,2.08
2023-03-25T01:21:50.316Z,3.00
2023-03-25T01:26:51.806Z,2.03
2023-03-25T01:31:53.732Z,2.20
2023-03-25T01:36:55.441Z,2.47
2023-03-25T01:41:57.092Z,2.35
2023-03-25T01:47:03.691Z,2.10
2023-03-25T01:52:23.396Z,2.58
2023-03-25T01:57:25.746Z,2.10
2023-03-25T02:02:34.825Z,1.93
2023-03-25T02:07:42.392Z,2.10
2023-03-25T02:12:45.698Z,2.00
2023-03-25T02:18:02.772Z,1.80
2023-03-25T02:23:16.292Z,2.00
2023-03-25T02:28:25.608Z,2.08
2023-03-25T02:34:05.577Z,1.63
2023-03-25T02:39:31.993Z,1.70
2023-03-25T02:44:55.116Z,1.92
2023-03-25T02:50:07.579Z,1.70
2023-03-25T02:55:12.493Z,1.70
2023-03-25T03:00:17.618Z,1.90
2023-03-25T03:05:47.901Z,1.70
2023-03-25T03:10:55.788Z,1.70
2023-03-25T03:16:34.625Z,1.45
2023-03-25T03:21:54.706Z,1.83
2023-03-25T03:27:08.223Z,1.58
2023-03-25T03:32:20.861Z,1.98
2023-03-25T03:37:37.374Z,1.30
2023-03-25T03:42:44.742Z,1.30
2023-03-25T03:47:54.309Z,1.58
2023-03-25T03:53:05.758Z,0.85
2023-03-25T03:58:16.651Z,1.10
2023-03-25T04:03:24.384Z,0.85
2023-03-25T04:08:37.293Z,1.10
2023-03-25T04:13:44.628Z,0.90
2023-03-25T04:18:47.811Z,1.20
2023-03-25T04:23:49.852Z,0.80
2023-03-25T04:28:51.605Z,0.90
2023-03-25T04:33:53.034Z,0.93
2023-03-25T04:38:55.811Z,0.98
2023-03-25T04:43:58.290Z,0.98
2023-03-25T04:49:00.412Z,0.82
2023-03-25T04:54:01.873Z,0.80
2023-03-25T04:59:04.198Z,0.98
2023-03-25T05:04:06.079Z,0.75
2023-03-25T05:09:10.219Z,0.77
2023-03-25T05:14:14.782Z,0.80
2023-03-25T05:19:18.698Z,0.63
2023-03-25T05:24:20.274Z,0.70
2023-03-25T05:29:21.710Z,0.70
2023-03-25T05:34:25.565Z,0.60
2023-03-25T05:39:27.109Z,0.70
2023-03-25T05:44:28.762Z,0.70
2023-03-25T05:49:30.255Z,0.60
2023-03-25T05:54:31.696Z,0.63
2023-03-25T05:59:33.231Z,0.60
2023-03-25T06:04:37.829Z,0.63
2023-03-25T06:09:46.488Z,0.60
2023-03-25T06:14:53.732Z,1.30
2023-03-25T06:19:55.159Z,0.70
2023-03-25T06:24:56.559Z,0.70
2023-03-25T06:29:58.207Z,0.90
2023-03-25T06:34:59.585Z,0.88
2023-03-25T06:40:01.202Z,1.00
2023-03-25T06:45:04.957Z,0.98
2023-03-25T06:50:19.110Z,0.80
2023-03-25T06:55:20.775Z,0.98
2023-03-25T07:00:24.518Z,1.27
2023-03-25T07:05:26.027Z,0.80
2023-03-25T07:10:27.540Z,0.90
2023-03-25T07:15:29.057Z,0.90
2023-03-25T07:20:30.747Z,1.13
2023-03-25T07:25:32.793Z,0.80
2023-03-25T07:30:34.381Z,0.73
2023-03-25T07:35:36.044Z,1.10
2023-03-25T07:40:37.883Z,1.05
2023-03-25T07:45:44.091Z,1.02
2023-03-25T07:50:46.287Z,1.08
2023-03-25T07:56:13.648Z,0.80
2023-03-25T08:01:15.561Z,1.10
2023-03-25T08:06:16.990Z,1.30
2023-03-25T08:11:18.441Z,1.10
2023-03-25T08:16:19.900Z,1.10
2023-03-25T08:21:27.821Z,0.80
2023-03-25T08:26:30.961Z,1.20
2023-03-25T08:31:47.032Z,1.00
2023-03-25T08:36:50.725Z,1.10
2023-03-25T08:41:54.249Z,0.90
2023-03-25T08:52:00.316Z,1.10
2023-03-25T09:04:21.756Z,0.95
2023-03-25T09:09:23.524Z,1.40
2023-03-25T09:14:25.227Z,1.10
2023-03-25T09:19:26.726Z,1.40
2023-03-25T09:24:28.197Z,1.25
2023-03-25T09:29:32.242Z,1.15
2023-03-25T09:34:34.258Z,0.98
2023-03-25T09:39:35.866Z,1.15
2023-03-25T09:44:58.381Z,1.60
2023-03-25T09:50:06.425Z,1.88
2023-03-25T09:55:15.924Z,1.40
2023-03-25T10:00:25.609Z,1.75
2023-03-25T10:05:54.637Z,1.70
2023-03-25T10:11:26.826Z,1.88
2023-03-25T10:16:51.991Z,1.50
2023-03-25T10:22:09.085Z,1.60
2023-03-25T10:27:26.959Z,1.73
2023-03-25T10:32:38.334Z,1.83
2023-03-25T10:37:42.046Z,1.80
2023-03-25T10:43:05.046Z,1.20
2023-03-25T10:48:19.070Z,1.15
2023-03-25T10:53:24.508Z,1.10
2023-03-25T10:58:26.597Z,1.20
2023-03-25T11:03:33.655Z,1.00
2023-03-25T11:08:35.743Z,1.00
2023-03-25T11:13:37.345Z,1.20
2023-03-25T11:18:40.803Z,1.02
2023-03-25T11:23:51.474Z,1.00
2023-03-25T11:29:07.083Z,1.00
2023-03-25T11:34:22.386Z,1.20
2023-03-25T11:39:23.766Z,0.88
2023-03-25T11:44:33.194Z,0.80
2023-03-25T11:49:38.460Z,0.90
2023-03-25T11:54:41.669Z,1.25
2023-03-25T12:05:04.298Z,1.08
2023-03-25T12:10:06.891Z,1.00
2023-03-25T12:15:26.930Z,0.88
2023-03-25T12:20:44.680Z,0.90
2023-03-25T12:26:14.386Z,0.98
2023-03-25T12:31:49.692Z,1.00
2023-03-25T12:37:21.085Z,1.00
2023-03-25T12:42:34.912Z,1.00
2023-03-25T12:47:41.898Z,0.85
2023-03-25T12:52:46.380Z,0.95
2023-03-25T12:58:01.715Z,0.82
2023-03-25T13:03:16.643Z,1.42
2023-03-25T13:08:30.633Z,0.77
2023-03-25T13:13:35.253Z,1.00
2023-03-25T13:18:36.625Z,1.10
2023-03-25T13:23:40.724Z,0.90
2023-03-25T13:28:47.413Z,1.15
2023-03-25T13:33:56.318Z,1.00
2023-03-25T13:39:04.943Z,1.33
2023-03-25T13:44:24.570Z,1.10
2023-03-25T13:49:45.226Z,1.20
2023-03-25T13:55:04.381Z,1.20
2023-03-25T14:00:52.850Z,1.23
2023-03-25T14:06:08.707Z,1.35
2023-03-25T14:11:16.425Z,1.77
2023-03-25T14:16:28.920Z,1.23
2023-03-25T14:21:39.809Z,1.17
2023-03-25T14:26:54.937Z,1.73
2023-03-25T14:32:17.125Z,1.10
2023-03-25T14:37:28.770Z,1.37
2023-03-25T14:42:42.245Z,0.75
2023-03-25T14:47:52.975Z,0.80
2023-03-25T14:53:01.246Z,1.20
2023-03-25T14:58:07.132Z,0.90
2023-03-25T15:03:12.966Z,1.00
2023-03-25T15:08:17.540Z,0.60
2023-03-25T15:13:25.781Z,0.68
2023-03-25T15:18:36.721Z,1.20
2023-03-25T15:23:47.501Z,1.00
2023-03-25T15:29:04.368Z,1.10
2023-03-25T15:34:44.684Z,0.82
2023-03-25T15:40:12.063Z,0.90
2023-03-25T15:45:42.750Z,1.20
2023-03-25T15:50:57.437Z,0.93
2023-03-25T15:56:06.486Z,0.90
2023-03-25T16:01:27.128Z,0.90
2023-03-25T16:06:30.922Z,1.20
2023-03-25T16:11:32.547Z,0.90
2023-03-25T16:16:37.843Z,1.00
2023-03-25T16:21:39.616Z,1.05
2023-03-25T16:26:47.910Z,1.25
2023-03-25T16:31:52.753Z,1.00
2023-03-25T16:36:56.048Z,0.77
2023-03-25T16:42:24.166Z,1.20
2023-03-25T16:47:25.805Z,1.10
2023-03-25T16:52:30.163Z,1.20
2023-03-25T16:57:39.053Z,1.75
2023-03-25T17:02:41.481Z,1.00
2023-03-25T17:07:43.440Z,1.02
2023-03-25T17:12:50.910Z,1.05
2023-03-25T17:18:00.020Z,1.10
2023-03-25T17:23:10.022Z,1.10
2023-03-25T17:28:38.995Z,1.40
2023-03-25T17:33:48.158Z,1.58
2023-03-25T17:38:53.357Z,1.20
2023-03-25T17:43:55.985Z,1.20
2023-03-25T17:48:58.629Z,1.27
2023-03-25T17:54:00.294Z,1.00
2023-03-25T17:59:04.677Z,1.30
2023-03-25T18:04:06.103Z,1.20
2023-03-25T18:09:21.988Z,1.27
2023-03-25T18:14:24.599Z,1.80
2023-03-25T18:19:27.759Z,1.42
2023-03-25T18:24:29.521Z,1.40
2023-03-25T18:29:31.152Z,1.52
2023-03-25T18:34:32.755Z,1.10
2023-03-25T18:39:34.241Z,1.20
2023-03-25T18:44:35.714Z,1.20
2023-03-25T18:49:37.453Z,1.30
2023-03-25T18:54:38.850Z,1.38
2023-03-25T18:59:40.274Z,1.40
2023-03-25T19:04:54.213Z,1.30
2023-03-25T19:10:02.123Z,1.98
2023-03-25T19:15:03.920Z,1.48
2023-03-25T19:20:06.086Z,1.20
2023-03-25T19:25:08.521Z,1.40
2023-03-25T19:30:13.097Z,1.25
2023-03-25T19:35:15.895Z,1.10
2023-03-25T19:40:20.206Z,1.33
2023-03-25T19:45:22.244Z,1.13
2023-03-25T19:50:31.076Z,1.10
2023-03-25T19:55:33.462Z,1.42
2023-03-25T20:00:35.081Z,1.98
2023-03-25T20:05:36.669Z,1.30
2023-03-25T20:10:40.921Z,1.33
2023-03-25T20:15:44.774Z,1.20
2023-03-25T20:20:46.263Z,0.80
2023-03-25T20:25:50.349Z,0.80
2023-03-25T20:30:52.282Z,0.98
2023-03-25T20:35:54.032Z,0.98
2023-03-25T20:40:55.879Z,1.10
2023-03-25T20:45:57.590Z,0.80
2023-03-25T20:51:01.603Z,0.70
2023-03-25T20:56:03.984Z,0.90
2023-03-25T21:01:05.557Z,1.92
2023-03-25T21:06:13.454Z,1.10
2023-03-25T21:11:22.436Z,1.88
2023-03-25T21:16:23.972Z,1.27
2023-03-25T21:21:25.612Z,1.50
2023-03-25T21:26:27.072Z,1.70
2023-03-25T21:31:29.138Z,1.55
2023-03-25T21:36:32.143Z,1.77
2023-03-25T21:46:36.645Z,1.77
2023-03-25T21:51:42.314Z,1.95
2023-03-25T21:56:43.743Z,1.85
2023-03-25T22:01:45.377Z,1.50
2023-03-25T22:06:46.931Z,2.55
2023-03-25T22:11:48.401Z,1.35
2023-03-25T22:16:49.932Z,1.33
2023-03-25T22:21:51.394Z,1.33
2023-03-25T22:26:52.823Z,1.50
2023-03-25T22:31:55.670Z,1.67
2023-03-25T22:36:57.138Z,1.67
2023-03-25T22:41:58.966Z,1.45
2023-03-25T22:47:00.445Z,1.42
2023-03-25T22:52:01.840Z,1.80
2023-03-25T22:57:03.353Z,1.30
2023-03-25T23:02:04.974Z,1.10
2023-03-25T23:07:08.406Z,1.25
2023-03-25T23:12:12.019Z,1.52
2023-03-25T23:17:13.455Z,1.50
2023-03-25T23:22:17.042Z,1.63
2023-03-25T23:27:18.479Z,1.70
2023-03-25T23:32:20.127Z,1.48
2023-03-25T23:37:21.604Z,1.50
2023-03-25T23:42:23.089Z,1.42
2023-03-25T23:47:36.664Z,1.20
2023-03-25T23:52:38.088Z,1.80
2023-03-25T23:57:39.542Z,1.30
